createdAt,value
2022-12-16T00:01:35.348Z,39.92
2022-12-16T00:04:02.786Z,37.40
2022-12-16T00:06:32.618Z,28.88
2022-12-16T00:09:00.783Z,37.92
2022-12-16T00:11:28.510Z,32.85
2022-12-16T00:13:55.403Z,36.42
2022-12-16T00:16:22.553Z,42.25
2022-12-16T00:18:49.686Z,34.95
2022-12-16T00:21:19.188Z,33.83
2022-12-16T00:23:46.270Z,36.42
2022-12-16T00:26:13.943Z,30.85
2022-12-16T00:28:43.835Z,42.38
2022-12-16T00:31:11.363Z,35.53
2022-12-16T00:33:38.678Z,32.17
2022-12-16T00:36:06.455Z,30.30
2022-12-16T00:38:33.786Z,31.48
2022-12-16T00:41:00.867Z,34.50
2022-12-16T00:43:27.748Z,33.78
2022-12-16T00:45:55.138Z,36.08
2022-12-16T00:48:23.178Z,35.70
2022-12-16T00:50:51.954Z,37.25
2022-12-16T00:53:19.658Z,36.03
2022-12-16T00:55:46.652Z,36.97
2022-12-16T00:58:14.001Z,42.08
2022-12-16T01:00:41.234Z,30.85
2022-12-16T01:03:08.975Z,36.67
2022-12-16T01:05:38.877Z,41.38
2022-12-16T01:08:06.297Z,35.80
2022-12-16T01:10:33.631Z,40.72
2022-12-16T01:13:00.899Z,32.65
2022-12-16T01:15:27.832Z,33.55
2022-12-16T01:17:54.656Z,39.55
2022-12-16T01:20:22.305Z,34.40
2022-12-16T01:22:49.575Z,33.38
2022-12-16T01:25:17.800Z,36.05
2022-12-16T01:27:45.087Z,32.10
2022-12-16T01:30:12.651Z,28.02
2022-12-16T01:32:39.972Z,26.73
2022-12-16T01:35:18.118Z,32.90
2022-12-16T01:37:54.905Z,33.13
2022-12-16T01:40:24.293Z,40.97
2022-12-16T01:42:51.591Z,31.95
2022-12-16T01:45:27.220Z,37.00
2022-12-16T01:47:58.335Z,33.22
2022-12-16T01:50:26.255Z,34.65
2022-12-16T01:52:57.458Z,32.50
2022-12-16T01:55:46.868Z,32.72
2022-12-16T01:58:25.916Z,30.88
2022-12-16T02:00:53.422Z,33.28
2022-12-16T02:03:22.522Z,36.13
2022-12-16T02:05:49.929Z,34.90
2022-12-16T02:08:19.213Z,31.95
2022-12-16T02:11:11.793Z,39.83
2022-12-16T02:13:50.973Z,29.98
2022-12-16T02:19:52.433Z,30.15
2022-12-16T02:23:00.859Z,32.55
2022-12-16T02:25:34.085Z,31.35
2022-12-16T02:28:42.830Z,29.95
2022-12-16T02:31:28.632Z,30.33
2022-12-16T02:34:18.298Z,27.17
2022-12-16T02:37:32.692Z,28.13
2022-12-16T02:40:06.357Z,23.25
2022-12-16T02:43:10.939Z,33.13
2022-12-16T02:45:38.837Z,25.92
2022-12-16T02:48:06.380Z,33.95
2022-12-16T02:50:41.140Z,27.75
2022-12-16T02:53:09.769Z,31.55
2022-12-16T02:55:44.863Z,31.08
2022-12-16T02:58:43.680Z,32.00
2022-12-16T03:01:55.481Z,27.63
2022-12-16T03:04:22.817Z,25.13
2022-12-16T03:06:51.462Z,31.98
2022-12-16T03:09:24.296Z,32.75
2022-12-16T03:11:54.297Z,29.17
2022-12-16T03:16:50.301Z,26.48
2022-12-16T03:19:17.668Z,28.00
2022-12-16T03:21:52.644Z,31.80
2022-12-16T03:24:19.969Z,26.35
2022-12-16T03:26:50.116Z,37.38
2022-12-16T03:29:22.869Z,45.25
2022-12-16T03:32:09.571Z,37.05
2022-12-16T03:34:42.685Z,35.03
2022-12-16T03:37:12.064Z,42.40
2022-12-16T03:39:44.545Z,36.63
2022-12-16T03:42:12.846Z,29.23
2022-12-16T03:44:40.128Z,24.27
2022-12-16T03:47:07.433Z,24.45
2022-12-16T03:49:34.753Z,36.00
2022-12-16T03:52:02.203Z,24.33
2022-12-16T03:54:29.480Z,24.77
2022-12-16T03:56:57.018Z,29.55
2022-12-16T03:59:24.460Z,35.55
2022-12-16T04:01:51.834Z,29.83
2022-12-16T04:04:19.232Z,39.40
2022-12-16T04:07:06.478Z,39.60
2022-12-16T04:09:33.780Z,41.13
2022-12-16T04:12:19.797Z,38.35
2022-12-16T04:15:05.572Z,29.85
2022-12-16T04:17:51.613Z,33.70
2022-12-16T04:20:39.315Z,32.58
2022-12-16T04:23:25.135Z,35.25
2022-12-16T04:25:52.469Z,29.38
2022-12-16T04:28:19.791Z,31.30
2022-12-16T04:30:47.276Z,29.40
2022-12-16T04:33:34.143Z,37.05
2022-12-16T04:36:20.435Z,45.38
2022-12-16T04:39:06.351Z,33.00
2022-12-16T04:41:52.239Z,35.67
2022-12-16T04:44:38.039Z,32.55
2022-12-16T04:47:24.389Z,31.70
2022-12-16T04:50:10.347Z,27.05
2022-12-16T04:52:56.205Z,31.25
2022-12-16T04:55:42.149Z,27.38
2022-12-16T04:58:28.111Z,41.30
2022-12-16T05:01:14.106Z,47.22
2022-12-16T05:04:00.006Z,34.55
2022-12-16T05:06:53.815Z,34.20
2022-12-16T05:09:39.540Z,46.88
2022-12-16T05:12:25.618Z,43.28
2022-12-16T05:15:11.411Z,48.22
2022-12-16T05:17:57.428Z,40.50
2022-12-16T05:20:43.296Z,51.13
2022-12-16T05:23:29.339Z,48.67
2022-12-16T05:26:15.363Z,45.35
2022-12-16T05:29:01.050Z,49.47
2022-12-16T05:31:47.006Z,40.75
2022-12-16T05:34:33.095Z,36.00
2022-12-16T05:37:18.875Z,43.20
2022-12-16T05:40:04.717Z,60.47
2022-12-16T05:42:50.555Z,52.55
2022-12-16T05:45:36.534Z,44.33
2022-12-16T05:48:22.482Z,51.55
2022-12-16T05:51:08.394Z,55.60
2022-12-16T05:53:55.610Z,46.33
2022-12-16T05:56:41.490Z,53.45
2022-12-16T05:59:27.366Z,54.78
2022-12-16T06:02:13.256Z,39.42
2022-12-16T06:04:59.197Z,33.97
2022-12-16T06:07:45.138Z,33.65
2022-12-16T06:10:31.032Z,34.83
2022-12-16T06:13:16.868Z,39.80
2022-12-16T06:16:08.415Z,38.95
2022-12-16T06:18:55.100Z,33.38
2022-12-16T06:21:40.922Z,36.10
2022-12-16T06:24:26.827Z,40.75
2022-12-16T06:27:12.968Z,37.03
2022-12-16T06:29:58.781Z,41.88
2022-12-16T06:32:44.920Z,41.10
2022-12-16T06:35:30.865Z,39.90
2022-12-16T06:38:16.735Z,45.70
2022-12-16T06:41:02.698Z,37.10
2022-12-16T06:43:48.503Z,41.35
2022-12-16T06:46:34.283Z,49.45
2022-12-16T06:49:20.691Z,32.22
2022-12-16T06:52:06.518Z,38.40
2022-12-16T06:54:52.519Z,45.08
2022-12-16T06:57:38.528Z,38.95
2022-12-16T07:00:24.706Z,35.03
2022-12-16T07:03:10.594Z,37.60
2022-12-16T07:05:56.333Z,39.53
2022-12-16T07:08:42.343Z,42.35
2022-12-16T07:11:28.234Z,36.75
2022-12-16T07:14:14.003Z,49.90
2022-12-16T07:16:59.834Z,34.25
2022-12-16T07:19:45.836Z,42.47
2022-12-16T07:22:31.670Z,38.30
2022-12-16T07:25:17.414Z,41.33
2022-12-16T07:28:12.182Z,34.10
2022-12-16T07:31:02.066Z,32.65
2022-12-16T07:33:47.965Z,30.52
2022-12-16T07:36:33.862Z,36.53
2022-12-16T07:39:19.724Z,27.65
2022-12-16T07:42:05.536Z,33.10
2022-12-16T07:44:51.743Z,33.38
2022-12-16T07:47:37.697Z,34.20
2022-12-16T07:50:23.678Z,33.25
2022-12-16T07:53:16.641Z,36.38
2022-12-16T07:56:05.073Z,34.25
2022-12-16T07:58:54.027Z,31.50
2022-12-16T08:01:52.718Z,35.35
2022-12-16T08:04:41.858Z,33.55
2022-12-16T08:07:28.196Z,33.45
2022-12-16T08:10:14.120Z,36.80
2022-12-16T08:13:02.034Z,33.47
2022-12-16T08:15:57.555Z,39.80
2022-12-16T08:18:51.327Z,40.00
2022-12-16T08:21:38.654Z,34.80
2022-12-16T08:24:24.827Z,34.75
2022-12-16T08:27:10.851Z,37.13
2022-12-16T08:29:56.779Z,36.10
2022-12-16T08:32:42.910Z,37.72
2022-12-16T08:35:28.703Z,39.15
2022-12-16T08:38:15.102Z,42.00
2022-12-16T08:41:02.128Z,37.42
2022-12-16T08:43:51.593Z,52.05
2022-12-16T08:46:37.643Z,54.63
2022-12-16T08:49:24.497Z,52.92
2022-12-16T08:52:10.474Z,53.60
2022-12-16T08:55:01.733Z,46.78
2022-12-16T08:57:51.953Z,49.28
2022-12-16T09:00:38.024Z,41.90
2022-12-16T09:03:26.564Z,51.17
2022-12-16T09:06:26.120Z,48.90
2022-12-16T09:09:21.669Z,43.17
2022-12-16T09:12:10.821Z,39.55
2022-12-16T09:15:08.291Z,43.25
2022-12-16T09:17:54.809Z,40.17
2022-12-16T09:20:42.394Z,45.33
2022-12-16T09:23:29.968Z,42.50
2022-12-16T09:26:31.109Z,38.25
2022-12-16T09:29:24.780Z,39.03
2022-12-16T09:32:18.753Z,40.85
2022-12-16T09:35:13.625Z,46.58
2022-12-16T09:45:37.759Z,43.95
2022-12-16T09:52:24.610Z,44.78
2022-12-16T09:58:47.060Z,40.75
2022-12-16T10:01:33.133Z,38.00
2022-12-16T10:04:19.404Z,42.05
2022-12-16T10:07:11.753Z,36.17
2022-12-16T10:10:27.190Z,36.13
2022-12-16T10:13:24.232Z,41.40
2022-12-16T10:16:34.726Z,38.17
2022-12-16T10:19:55.360Z,37.20
2022-12-16T10:23:11.566Z,34.70
2022-12-16T10:26:00.182Z,31.98
2022-12-16T10:29:06.669Z,38.13
2022-12-16T10:31:53.055Z,42.90
2022-12-16T10:34:47.300Z,36.28
2022-12-16T10:37:54.009Z,38.42
2022-12-16T10:47:37.745Z,35.40
2022-12-16T10:50:24.350Z,36.90
2022-12-16T10:53:21.207Z,36.30
2022-12-16T10:56:46.677Z,36.33
2022-12-16T10:59:33.205Z,39.35
2022-12-16T11:02:24.421Z,36.58
2022-12-16T11:05:10.469Z,37.10
2022-12-16T11:08:12.815Z,39.67
2022-12-16T11:11:00.956Z,36.45
2022-12-16T11:13:55.028Z,34.65
2022-12-16T11:16:42.027Z,37.60
2022-12-16T11:19:45.587Z,35.85
2022-12-16T11:22:37.116Z,34.22
2022-12-16T11:25:43.083Z,33.38
2022-12-16T11:28:36.392Z,35.10
2022-12-16T11:31:30.081Z,31.23
2022-12-16T11:34:22.952Z,31.40
2022-12-16T11:37:18.176Z,30.63
2022-12-16T11:40:08.998Z,34.60
2022-12-16T11:43:00.176Z,32.78
2022-12-16T11:46:05.467Z,32.35
2022-12-16T11:49:01.909Z,43.05
2022-12-16T11:51:50.745Z,31.52
2022-12-16T11:54:44.892Z,40.28
2022-12-16T11:58:18.428Z,39.25
2022-12-16T12:01:12.879Z,36.03
2022-12-16T12:04:15.624Z,40.40
2022-12-16T12:07:05.173Z,34.42
2022-12-16T12:10:10.606Z,37.83
2022-12-16T12:13:31.030Z,39.22
2022-12-16T12:16:47.131Z,36.30
2022-12-16T12:19:43.967Z,42.20
2022-12-16T12:22:57.327Z,37.78
2022-12-16T12:26:17.662Z,38.58
2022-12-16T12:29:25.925Z,40.03
2022-12-16T12:32:20.881Z,42.58
2022-12-16T12:35:19.223Z,43.22
2022-12-16T12:38:20.752Z,49.20
2022-12-16T12:41:06.700Z,40.60
2022-12-16T12:44:04.614Z,36.58
2022-12-16T12:47:24.090Z,37.00
2022-12-16T12:50:21.959Z,43.40
2022-12-16T12:53:36.039Z,44.47
2022-12-16T12:56:56.326Z,47.70
2022-12-16T13:00:06.907Z,37.50
2022-12-16T13:03:08.331Z,39.42
2022-12-16T13:05:58.070Z,39.78
2022-12-16T13:09:03.374Z,37.67
2022-12-16T13:11:49.822Z,41.35
2022-12-16T13:14:50.420Z,46.40
2022-12-16T13:17:41.911Z,41.65
2022-12-16T13:20:52.614Z,35.55
2022-12-16T13:23:47.162Z,57.28
2022-12-16T13:26:41.529Z,49.60
2022-12-16T13:29:45.439Z,47.00
2022-12-16T13:32:31.230Z,46.95
2022-12-16T13:35:24.705Z,43.53
2022-12-16T13:38:13.979Z,38.13
2022-12-16T13:41:19.602Z,48.23
2022-12-16T13:44:15.001Z,41.35
2022-12-16T13:47:08.855Z,42.30
2022-12-16T13:50:44.917Z,40.13
2022-12-16T13:53:54.255Z,43.47
2022-12-16T13:56:54.881Z,41.27
2022-12-16T13:59:43.975Z,29.90
2022-12-16T14:02:42.093Z,35.78
2022-12-16T14:05:42.442Z,35.80
2022-12-16T14:11:21.876Z,32.72
2022-12-16T14:14:25.062Z,31.05
2022-12-16T14:17:19.185Z,27.58
2022-12-16T14:20:36.448Z,32.78
2022-12-16T14:23:57.703Z,32.33
2022-12-16T14:26:45.120Z,39.25
2022-12-16T14:29:42.182Z,26.95
2022-12-16T14:32:48.927Z,26.85
2022-12-16T14:35:46.159Z,39.22
2022-12-16T14:38:47.289Z,33.15
2022-12-16T14:41:39.229Z,31.92
2022-12-16T14:44:36.059Z,32.25
2022-12-16T14:47:24.371Z,32.78
2022-12-16T14:50:18.367Z,32.63
2022-12-16T14:53:04.655Z,29.25
2022-12-16T14:55:57.153Z,28.25
2022-12-16T14:58:50.216Z,33.60
2022-12-16T15:01:46.445Z,31.13
2022-12-16T15:04:41.108Z,31.45
2022-12-16T15:07:38.032Z,32.22
2022-12-16T15:10:25.491Z,32.90
2022-12-16T15:13:14.461Z,36.28
2022-12-16T15:16:09.536Z,26.90
2022-12-16T15:19:02.623Z,36.38
2022-12-16T15:21:48.962Z,32.65
2022-12-16T15:24:40.043Z,27.58
2022-12-16T15:27:40.638Z,28.83
2022-12-16T15:30:55.249Z,30.33
2022-12-16T15:33:49.472Z,27.67
2022-12-16T15:36:48.450Z,28.90
2022-12-16T15:39:37.033Z,36.95
2022-12-16T15:42:23.323Z,35.92
2022-12-16T15:45:10.130Z,29.15
2022-12-16T15:47:56.870Z,32.78
2022-12-16T15:50:45.727Z,32.95
2022-12-16T15:54:06.063Z,33.83
2022-12-16T15:57:03.097Z,30.13
2022-12-16T15:59:55.024Z,36.33
2022-12-16T16:02:44.095Z,39.58
2022-12-16T16:05:36.334Z,34.50
2022-12-16T16:08:22.177Z,31.98
2022-12-16T16:11:08.267Z,29.02
2022-12-16T16:13:56.794Z,29.88
2022-12-16T16:16:44.573Z,28.17
2022-12-16T16:19:42.147Z,30.73
2022-12-16T16:22:31.139Z,34.63
2022-12-16T16:25:16.966Z,29.67
2022-12-16T16:28:02.818Z,33.33
2022-12-16T16:30:48.647Z,31.52
2022-12-16T16:36:12.032Z,34.75
2022-12-16T16:38:57.872Z,32.65
2022-12-16T16:41:44.205Z,27.35
2022-12-16T16:44:30.051Z,30.55
2022-12-16T16:47:16.684Z,30.02
2022-12-16T16:50:05.677Z,29.73
2022-12-16T16:52:51.598Z,29.77
2022-12-16T16:55:46.027Z,23.77
2022-12-16T16:58:52.919Z,29.70
2022-12-16T17:01:40.687Z,24.33
2022-12-16T17:04:29.927Z,28.08
2022-12-16T17:07:15.908Z,26.27
2022-12-16T17:10:04.435Z,26.95
2022-12-16T17:13:04.486Z,23.55
2022-12-16T17:15:52.229Z,29.48
2022-12-16T17:18:45.671Z,29.17
2022-12-16T17:21:32.789Z,23.00
2022-12-16T17:24:21.637Z,23.98
2022-12-16T17:27:10.875Z,32.10
2022-12-16T17:29:59.421Z,24.70
2022-12-16T17:32:45.235Z,23.80
2022-12-16T17:35:31.375Z,29.02
2022-12-16T17:41:38.485Z,25.52
2022-12-16T17:44:38.845Z,26.00
2022-12-16T17:47:27.742Z,25.30
2022-12-16T17:50:14.491Z,40.30
2022-12-16T17:53:00.771Z,32.88
2022-12-16T17:55:51.674Z,38.05
2022-12-16T17:58:37.786Z,39.22
2022-12-16T18:01:25.278Z,38.63
2022-12-16T18:04:11.558Z,31.45
2022-12-16T18:06:57.441Z,32.65
2022-12-16T18:09:44.009Z,18.40
2022-12-16T18:12:30.934Z,25.55
2022-12-16T18:15:16.839Z,27.98
2022-12-16T18:18:06.559Z,23.70
2022-12-16T18:20:53.220Z,25.98
2022-12-16T18:23:41.679Z,26.97
2022-12-16T18:26:29.068Z,28.73
2022-12-16T18:29:16.860Z,22.27
2022-12-16T18:32:02.917Z,23.95
2022-12-16T18:34:48.828Z,25.27
2022-12-16T18:37:37.174Z,24.70
2022-12-16T18:40:26.295Z,24.45
2022-12-16T18:43:14.733Z,28.55
2022-12-16T18:49:22.408Z,27.73
2022-12-16T18:55:11.325Z,34.30
2022-12-16T18:57:57.197Z,30.00
2022-12-16T19:00:43.481Z,31.13
2022-12-16T19:03:29.827Z,27.98
2022-12-16T19:06:16.549Z,27.55
2022-12-16T19:09:02.737Z,32.42
2022-12-16T19:11:48.770Z,30.55
2022-12-16T19:14:34.998Z,26.58
2022-12-16T19:17:20.908Z,33.42
2022-12-16T19:20:07.063Z,32.10
2022-12-16T19:22:53.448Z,27.13
2022-12-16T19:25:40.754Z,31.60
2022-12-16T19:28:32.800Z,35.33
2022-12-16T19:31:19.348Z,24.40
2022-12-16T19:34:05.384Z,30.38
2022-12-16T19:36:51.997Z,29.25
2022-12-16T19:39:38.219Z,29.33
2022-12-16T19:42:24.013Z,26.90
2022-12-16T19:45:09.965Z,31.55
2022-12-16T19:47:56.341Z,26.23
2022-12-16T19:50:42.683Z,34.95
2022-12-16T19:53:28.774Z,34.03
2022-12-16T19:56:17.930Z,33.17
2022-12-16T19:59:03.787Z,33.90
2022-12-16T20:01:50.116Z,32.20
2022-12-16T20:04:36.134Z,28.70
2022-12-16T20:07:23.407Z,29.98
2022-12-16T20:10:09.414Z,31.52
2022-12-16T20:12:56.200Z,30.55
2022-12-16T20:15:42.058Z,39.13
2022-12-16T20:18:28.251Z,37.75
2022-12-16T20:21:14.146Z,32.97
2022-12-16T20:23:59.891Z,39.13
2022-12-16T20:26:47.701Z,32.65
2022-12-16T20:29:33.661Z,35.30
2022-12-16T20:32:19.917Z,38.00
2022-12-16T20:35:05.748Z,31.80
2022-12-16T20:37:51.745Z,37.30
2022-12-16T20:40:37.729Z,37.30
2022-12-16T20:43:25.635Z,35.00
2022-12-16T20:46:15.141Z,40.85
2022-12-16T20:49:01.349Z,35.35
2022-12-16T20:51:47.601Z,33.17
2022-12-16T20:54:33.764Z,29.25
2022-12-16T20:57:19.648Z,33.45
2022-12-16T21:00:05.598Z,32.40
2022-12-16T21:02:53.514Z,28.17
2022-12-16T21:05:39.874Z,25.48
2022-12-16T21:08:25.831Z,28.75
2022-12-16T21:11:15.931Z,31.20
2022-12-16T21:16:47.471Z,35.13
2022-12-16T21:22:38.954Z,35.00
2022-12-16T21:25:25.330Z,30.17
2022-12-16T21:28:15.368Z,36.03
2022-12-16T21:33:47.143Z,33.83
2022-12-16T21:36:33.501Z,39.53
2022-12-16T21:39:19.437Z,35.20
2022-12-16T21:42:05.710Z,32.90
2022-12-16T21:44:51.776Z,40.65
2022-12-16T21:47:37.663Z,31.60
2022-12-16T21:50:24.079Z,34.92
2022-12-16T21:53:10.029Z,35.10
2022-12-16T21:55:55.752Z,32.30
2022-12-16T21:58:42.963Z,34.53
2022-12-16T22:01:29.019Z,33.67
2022-12-16T22:04:15.178Z,35.13
2022-12-16T22:07:01.471Z,41.28
2022-12-16T22:09:47.181Z,36.00
2022-12-16T22:12:33.647Z,33.92
2022-12-16T22:15:19.796Z,31.75
2022-12-16T22:18:05.667Z,31.67
2022-12-16T22:20:51.849Z,31.85
2022-12-16T22:23:38.146Z,27.00
2022-12-16T22:26:24.481Z,32.38
2022-12-16T22:29:13.177Z,34.28
2022-12-16T22:31:59.399Z,29.50
2022-12-16T22:34:45.421Z,36.00
2022-12-16T22:37:31.892Z,39.10
2022-12-16T22:40:17.738Z,34.35
2022-12-16T22:43:03.698Z,34.40
2022-12-16T22:46:05.604Z,31.95
2022-12-16T22:48:51.881Z,26.63
2022-12-16T22:51:37.334Z,30.80
2022-12-16T22:54:23.108Z,39.00
2022-12-16T22:57:08.275Z,32.25
2022-12-16T22:59:54.173Z,36.75
2022-12-16T23:02:42.952Z,31.05
2022-12-16T23:05:29.196Z,31.67
2022-12-16T23:08:14.929Z,38.50
2022-12-16T23:11:01.219Z,43.30
2022-12-16T23:13:47.055Z,42.53
2022-12-16T23:16:33.698Z,42.00
2022-12-16T23:19:19.184Z,36.80
2022-12-16T23:22:06.602Z,34.22
2022-12-16T23:24:52.038Z,29.38
2022-12-16T23:27:37.902Z,38.38
2022-12-16T23:30:23.951Z,38.63
2022-12-16T23:33:16.507Z,37.05
2022-12-16T23:36:01.798Z,32.47
2022-12-16T23:38:47.308Z,42.95
2022-12-16T23:41:32.704Z,36.78
2022-12-16T23:44:18.549Z,41.70
2022-12-16T23:47:03.753Z,39.65
2022-12-16T23:49:49.159Z,41.20
2022-12-16T23:52:34.940Z,43.55
2022-12-16T23:55:20.397Z,35.85
2022-12-16T23:58:05.664Z,42.30
